SY-0002 weather

Qabr al-Sitt Heliport
Beit Sahem, Rif Dimashq Governorate, Syria

Public forecast

Using degrees Celsius for public forecast. Weather courtesy of forecast.io.

METAR (pilot weather report)

Closest report is Damascus International Airport, 8.4 nm (15.6 km) ESE. Retrieved 2019/08/17 21:00 UTC (43 minutes ago):

OSDI 172100Z 21018KT CAVOK 23/18 Q1008

TAF (pilot weather forecast)

Closest forecast is Damascus International Airport, 8.4 nm (15.6 km) ESE. Retrieved 2019/08/17 18:03 UTC (4 hours ago):

TAF TAF OSDI 171600Z 1718/1824 22015KT TEMPO 1809/1818 26015G25KT 9999 FEW030